createdAt,value
2024-01-17T00:00:05.725Z,23.79
2024-01-17T00:01:05.063Z,23.76
2024-01-17T00:02:04.930Z,23.79
2024-01-17T00:03:05.023Z,23.81
2024-01-17T00:04:04.910Z,23.76
2024-01-17T00:05:04.911Z,23.81
2024-01-17T00:06:04.942Z,23.74
2024-01-17T00:07:05.042Z,23.76
2024-01-17T00:08:04.974Z,23.80
2024-01-17T00:09:04.980Z,23.75
2024-01-17T00:10:04.910Z,23.75
2024-01-17T00:11:04.901Z,23.78
2024-01-17T00:12:04.922Z,23.76
2024-01-17T00:13:04.886Z,23.73
2024-01-17T00:14:04.882Z,23.72
2024-01-17T00:15:05.010Z,23.76
2024-01-17T00:16:04.997Z,23.72
2024-01-17T00:17:05.155Z,23.76
2024-01-17T00:18:05.184Z,23.73
2024-01-17T00:19:05.294Z,23.74
2024-01-17T00:20:05.140Z,23.74
2024-01-17T00:21:05.336Z,23.75
2024-01-17T00:22:05.265Z,23.71
2024-01-17T00:23:05.312Z,23.72
2024-01-17T00:24:05.472Z,23.73
2024-01-17T00:25:05.431Z,23.72
2024-01-17T00:26:05.475Z,23.70
2024-01-17T00:27:05.521Z,23.71
2024-01-17T00:28:05.476Z,23.69
2024-01-17T00:29:05.474Z,23.75
2024-01-17T00:30:05.626Z,23.72
2024-01-17T00:31:05.483Z,23.68
2024-01-17T00:32:05.456Z,23.69
2024-01-17T00:33:05.696Z,23.72
2024-01-17T00:34:05.575Z,23.70
2024-01-17T00:35:05.469Z,23.69
2024-01-17T00:36:05.529Z,23.70
2024-01-17T00:37:05.416Z,23.68
2024-01-17T00:38:05.425Z,23.69
2024-01-17T00:39:05.510Z,23.66
2024-01-17T00:40:05.518Z,23.70
2024-01-17T00:41:05.591Z,23.69
2024-01-17T00:42:05.699Z,23.66
2024-01-17T00:43:05.695Z,23.66
2024-01-17T00:44:05.760Z,23.69
2024-01-17T00:45:05.867Z,23.66
2024-01-17T00:46:05.841Z,23.66
2024-01-17T00:47:05.908Z,23.71
2024-01-17T00:48:06.054Z,23.70
2024-01-17T00:49:06.091Z,23.70
2024-01-17T00:50:05.925Z,23.65
2024-01-17T00:51:05.959Z,23.69
2024-01-17T00:52:05.965Z,23.66
2024-01-17T00:53:05.934Z,23.73
2024-01-17T00:54:05.961Z,23.69
2024-01-17T00:55:05.902Z,23.65
2024-01-17T00:56:05.893Z,23.69
2024-01-17T00:57:05.931Z,23.63
2024-01-17T00:58:05.914Z,23.68
2024-01-17T00:59:05.880Z,23.63
2024-01-17T01:00:05.907Z,23.68
2024-01-17T01:01:05.892Z,23.65
2024-01-17T01:02:05.858Z,23.63
2024-01-17T01:03:05.945Z,23.60
2024-01-17T01:04:05.916Z,23.59
2024-01-17T01:05:05.947Z,23.69
2024-01-17T01:06:05.884Z,23.65
2024-01-17T01:07:05.834Z,23.69
2024-01-17T01:08:05.865Z,23.63
2024-01-17T01:09:05.910Z,23.60
2024-01-17T01:10:05.826Z,23.66
2024-01-17T01:11:05.799Z,23.65
2024-01-17T01:12:05.878Z,23.66
2024-01-17T01:13:05.830Z,23.60
2024-01-17T01:14:05.903Z,23.65
2024-01-17T01:15:05.973Z,23.68
2024-01-17T01:16:06.009Z,23.65
2024-01-17T01:17:06.071Z,23.62
2024-01-17T01:18:06.668Z,23.62
2024-01-17T01:19:06.351Z,23.62
2024-01-17T01:20:06.227Z,23.62
2024-01-17T01:21:06.472Z,23.62
2024-01-17T01:22:06.341Z,23.62
2024-01-17T01:23:06.395Z,23.60
2024-01-17T01:24:06.604Z,23.58
2024-01-17T01:25:06.445Z,23.66
2024-01-17T01:26:06.441Z,23.57
2024-01-17T01:27:06.473Z,23.60
2024-01-17T01:28:06.460Z,23.60
2024-01-17T01:29:06.451Z,23.60
2024-01-17T01:30:06.596Z,23.56
2024-01-17T01:31:06.563Z,23.62
2024-01-17T01:32:06.446Z,23.62
2024-01-17T01:33:06.588Z,23.60
2024-01-17T01:34:06.515Z,23.63
2024-01-17T01:35:06.505Z,23.56
2024-01-17T01:36:06.552Z,23.57
2024-01-17T01:37:06.578Z,23.62
2024-01-17T01:38:06.486Z,23.60
2024-01-17T01:39:06.517Z,23.55
2024-01-17T01:40:06.485Z,23.59
2024-01-17T01:41:06.495Z,23.56
2024-01-17T01:42:06.630Z,23.55
2024-01-17T01:43:06.499Z,23.59
2024-01-17T01:44:06.488Z,23.56
2024-01-17T01:45:06.621Z,23.57
2024-01-17T01:46:06.500Z,23.57
2024-01-17T01:47:06.496Z,23.50
2024-01-17T01:48:06.613Z,23.58
2024-01-17T01:49:06.639Z,23.53
2024-01-17T01:50:06.474Z,23.59
2024-01-17T01:51:06.507Z,23.57
2024-01-17T01:52:06.477Z,23.55
2024-01-17T01:53:06.585Z,23.55
2024-01-17T01:54:06.626Z,23.56
2024-01-17T01:55:06.467Z,23.59
2024-01-17T01:56:06.456Z,23.50
2024-01-17T01:57:06.563Z,23.55
2024-01-17T01:58:06.444Z,23.52
2024-01-17T01:59:06.458Z,23.49
2024-01-17T02:00:06.536Z,23.55
2024-01-17T02:01:06.533Z,23.50
2024-01-17T02:02:06.501Z,23.50
2024-01-17T02:03:06.532Z,23.53
2024-01-17T02:04:06.534Z,23.47
2024-01-17T02:05:06.485Z,23.53
2024-01-17T02:06:06.462Z,23.52
2024-01-17T02:07:06.458Z,23.52
2024-01-17T02:08:06.452Z,23.45
2024-01-17T02:09:06.639Z,23.49
2024-01-17T02:10:06.422Z,23.54
2024-01-17T02:11:08.807Z,23.49
2024-01-17T02:12:06.509Z,23.46
2024-01-17T02:13:06.393Z,23.47
2024-01-17T02:14:06.395Z,23.47
2024-01-17T02:15:06.537Z,23.47
2024-01-17T02:16:06.382Z,23.54
2024-01-17T02:17:06.391Z,23.48
2024-01-17T02:18:06.470Z,23.48
2024-01-17T02:19:06.444Z,23.48
2024-01-17T02:20:06.371Z,23.47
2024-01-17T02:21:06.469Z,23.47
2024-01-17T02:22:06.386Z,23.48
2024-01-17T02:23:06.364Z,23.49
2024-01-17T02:24:06.378Z,23.52
2024-01-17T02:25:06.355Z,23.49
2024-01-17T02:26:06.364Z,23.51
2024-01-17T02:27:06.468Z,23.47
2024-01-17T02:28:06.347Z,23.50
2024-01-17T02:29:06.338Z,23.52
2024-01-17T02:30:06.440Z,23.47
2024-01-17T02:31:06.387Z,23.44
2024-01-17T02:32:06.395Z,23.43
2024-01-17T02:33:06.409Z,23.47
2024-01-17T02:34:06.498Z,23.45
2024-01-17T02:35:06.311Z,23.49
2024-01-17T02:36:06.457Z,23.42
2024-01-17T02:37:06.321Z,23.44
2024-01-17T02:38:06.374Z,23.46
2024-01-17T02:39:06.473Z,23.44
2024-01-17T02:40:06.580Z,23.42
2024-01-17T02:41:06.688Z,23.46
2024-01-17T02:42:06.755Z,23.44
2024-01-17T02:43:06.685Z,23.46
2024-01-17T02:44:06.690Z,23.45
2024-01-17T02:45:06.896Z,23.44
2024-01-17T02:46:06.694Z,23.42
2024-01-17T02:47:06.695Z,23.42
2024-01-17T02:48:06.701Z,23.40
2024-01-17T02:49:06.778Z,23.41
2024-01-17T02:50:06.654Z,23.39
2024-01-17T02:51:06.763Z,23.40
2024-01-17T02:52:06.639Z,23.43
2024-01-17T02:53:06.633Z,23.45
2024-01-17T02:54:06.674Z,23.40
2024-01-17T02:55:06.617Z,23.42
2024-01-17T02:56:06.626Z,23.42
2024-01-17T02:57:06.751Z,23.41
2024-01-17T02:58:06.642Z,23.43
2024-01-17T02:59:06.608Z,23.41
2024-01-17T03:00:06.676Z,23.40
2024-01-17T03:01:06.640Z,23.36
2024-01-17T03:02:06.592Z,23.44
2024-01-17T03:03:06.665Z,23.37
2024-01-17T03:04:06.594Z,23.43
2024-01-17T03:05:06.635Z,23.40
2024-01-17T03:06:06.640Z,23.44
2024-01-17T03:07:06.609Z,23.42
2024-01-17T03:08:06.561Z,23.38
2024-01-17T03:09:06.586Z,23.37
2024-01-17T03:10:06.573Z,23.39
2024-01-17T03:11:06.564Z,23.37
2024-01-17T03:12:06.692Z,23.40
2024-01-17T03:13:06.615Z,23.38
2024-01-17T03:14:06.500Z,23.34
2024-01-17T03:15:06.598Z,23.40
2024-01-17T03:16:06.479Z,23.36
2024-01-17T03:17:06.476Z,23.40
2024-01-17T03:18:06.529Z,23.41
2024-01-17T03:19:06.584Z,23.42
2024-01-17T03:20:06.449Z,23.36
2024-01-17T03:21:06.559Z,23.35
2024-01-17T03:22:06.420Z,23.34
2024-01-17T03:23:06.433Z,23.37
2024-01-17T03:24:06.534Z,23.36
2024-01-17T03:25:06.397Z,23.34
2024-01-17T03:26:06.412Z,23.34
2024-01-17T03:27:06.422Z,23.37
2024-01-17T03:28:06.372Z,23.36
2024-01-17T03:29:06.452Z,23.34
2024-01-17T03:30:06.534Z,23.30
2024-01-17T03:31:06.382Z,23.36
2024-01-17T03:32:06.361Z,23.34
2024-01-17T03:33:06.589Z,23.36
2024-01-17T03:34:06.518Z,23.33
2024-01-17T03:35:06.340Z,23.36
2024-01-17T03:36:06.372Z,23.36
2024-01-17T03:37:08.738Z,23.36
2024-01-17T03:38:06.322Z,23.36
2024-01-17T03:39:06.356Z,23.30
2024-01-17T03:40:06.307Z,23.33
2024-01-17T03:41:06.296Z,23.36
2024-01-17T03:42:06.381Z,23.32
2024-01-17T03:43:06.289Z,23.36
2024-01-17T03:44:06.270Z,23.34
2024-01-17T03:45:06.461Z,23.32
2024-01-17T03:46:06.273Z,23.33
2024-01-17T03:47:06.260Z,23.34
2024-01-17T03:48:06.318Z,23.36
2024-01-17T03:49:06.419Z,23.30
2024-01-17T03:50:06.256Z,23.36
2024-01-17T03:51:06.247Z,23.30
2024-01-17T03:52:06.217Z,23.31
2024-01-17T03:53:06.196Z,23.33
2024-01-17T03:54:06.237Z,23.33
2024-01-17T03:55:06.224Z,23.32
2024-01-17T03:56:06.261Z,23.29
2024-01-17T03:57:06.657Z,23.33
2024-01-17T03:58:06.380Z,23.33
2024-01-17T03:59:06.440Z,23.32
2024-01-17T04:00:06.570Z,23.31
2024-01-17T04:01:06.749Z,23.30
2024-01-17T04:02:06.643Z,23.28
2024-01-17T04:03:06.714Z,23.30
2024-01-17T04:04:06.650Z,23.25
2024-01-17T04:05:06.638Z,23.36
2024-01-17T04:06:06.686Z,23.31
2024-01-17T04:07:06.626Z,23.30
2024-01-17T04:08:06.584Z,23.22
2024-01-17T04:09:06.677Z,23.29
2024-01-17T04:10:06.564Z,23.26
2024-01-17T04:11:06.563Z,23.24
2024-01-17T04:12:06.679Z,23.24
2024-01-17T04:13:06.527Z,23.25
2024-01-17T04:14:06.509Z,23.30
2024-01-17T04:15:06.526Z,23.27
2024-01-17T04:16:06.478Z,23.28
2024-01-17T04:17:06.484Z,23.27
2024-01-17T04:18:06.553Z,23.25
2024-01-17T04:19:06.530Z,23.28
2024-01-17T04:20:06.435Z,23.24
2024-01-17T04:21:06.492Z,23.28
2024-01-17T04:22:06.440Z,23.24
2024-01-17T04:23:07.494Z,23.22
2024-01-17T04:24:06.556Z,23.26
2024-01-17T04:25:06.426Z,23.31
2024-01-17T04:26:06.389Z,23.25
2024-01-17T04:27:06.444Z,23.24
2024-01-17T04:28:06.373Z,23.25
2024-01-17T04:29:06.384Z,23.28
2024-01-17T04:30:13.777Z,23.31
2024-01-17T04:31:20.984Z,23.32
2024-01-17T04:32:21.122Z,23.37
2024-01-17T04:33:21.057Z,23.28
2024-01-17T04:34:21.135Z,23.30
2024-01-17T04:35:20.955Z,23.25
2024-01-17T04:36:20.950Z,23.24
2024-01-17T04:37:20.941Z,23.21
2024-01-17T04:38:20.947Z,23.24
2024-01-17T04:39:20.922Z,23.24
2024-01-17T04:40:20.927Z,23.21
2024-01-17T04:41:20.908Z,23.22
2024-01-17T04:42:20.928Z,23.22
2024-01-17T04:43:20.907Z,23.22
2024-01-17T04:44:20.887Z,23.19
2024-01-17T04:45:20.889Z,23.19
2024-01-17T04:46:20.888Z,23.22
2024-01-17T04:47:20.908Z,23.25
2024-01-17T04:48:21.173Z,23.19
2024-01-17T04:49:20.981Z,23.16
2024-01-17T04:50:20.885Z,23.22
2024-01-17T04:51:20.856Z,23.16
2024-01-17T04:52:20.833Z,23.19
2024-01-17T04:53:20.834Z,23.18
2024-01-17T04:54:20.813Z,23.19
2024-01-17T04:55:20.798Z,23.18
2024-01-17T04:56:20.819Z,23.16
2024-01-17T04:57:20.806Z,23.21
2024-01-17T04:58:20.788Z,23.18
2024-01-17T04:59:20.766Z,23.18
2024-01-17T05:00:20.786Z,23.16
2024-01-17T05:01:20.758Z,23.16
2024-01-17T05:02:20.766Z,23.15
2024-01-17T05:03:20.748Z,23.13
2024-01-17T05:04:20.907Z,23.18
2024-01-17T05:05:20.810Z,23.19
2024-01-17T05:06:20.896Z,23.13
2024-01-17T05:07:20.716Z,23.16
2024-01-17T05:08:20.715Z,23.12
2024-01-17T05:09:20.712Z,23.14
2024-01-17T05:10:20.724Z,23.13
2024-01-17T05:11:20.774Z,23.18
2024-01-17T05:12:20.839Z,23.13
2024-01-17T05:13:20.881Z,23.13
2024-01-17T05:14:20.924Z,23.16
2024-01-17T05:15:20.975Z,23.12
2024-01-17T05:16:21.069Z,23.12
2024-01-17T05:17:21.136Z,23.13
2024-01-17T05:18:21.236Z,23.12
2024-01-17T05:19:21.385Z,23.09
2024-01-17T05:20:21.178Z,23.16
2024-01-17T05:21:21.189Z,23.15
2024-01-17T05:22:21.212Z,23.16
2024-01-17T05:23:21.163Z,23.15
2024-01-17T05:24:21.152Z,23.12
2024-01-17T05:25:21.146Z,23.14
2024-01-17T05:26:21.135Z,23.12
2024-01-17T05:27:21.131Z,23.13
2024-01-17T05:28:21.145Z,23.11
2024-01-17T05:29:21.204Z,23.13
2024-01-17T05:30:21.292Z,23.16
2024-01-17T05:31:21.263Z,23.10
2024-01-17T05:32:21.170Z,23.13
2024-01-17T05:33:21.343Z,23.12
2024-01-17T05:34:21.212Z,23.10
2024-01-17T05:35:21.153Z,23.13
2024-01-17T05:36:21.281Z,23.07
2024-01-17T05:37:21.142Z,23.11
2024-01-17T05:38:21.127Z,23.09
2024-01-17T05:39:21.117Z,23.11
2024-01-17T05:40:21.111Z,23.11
2024-01-17T05:41:21.112Z,23.10
2024-01-17T05:42:21.133Z,23.10
2024-01-17T05:43:21.097Z,23.12
2024-01-17T05:44:21.077Z,23.10
2024-01-17T05:45:21.115Z,23.09
2024-01-17T05:46:21.069Z,23.10
2024-01-17T05:47:21.099Z,23.07
2024-01-17T05:48:21.241Z,23.10
2024-01-17T05:49:21.131Z,23.10
2024-01-17T05:50:21.059Z,23.04
2024-01-17T05:51:21.070Z,23.13
2024-01-17T05:52:21.121Z,23.09
2024-01-17T05:53:21.065Z,23.05
2024-01-17T05:54:21.033Z,23.04
2024-01-17T05:55:21.017Z,23.07
2024-01-17T05:56:21.007Z,23.05
2024-01-17T05:57:21.002Z,23.04
2024-01-17T05:58:20.999Z,23.09
2024-01-17T05:59:21.070Z,23.03
2024-01-17T06:00:21.114Z,23.07
2024-01-17T06:01:21.171Z,23.04
2024-01-17T06:02:21.245Z,23.05
2024-01-17T06:03:21.519Z,23.04
2024-01-17T06:04:21.404Z,23.07
2024-01-17T06:05:21.411Z,23.07
2024-01-17T06:06:21.548Z,23.04
2024-01-17T06:07:21.571Z,23.09
2024-01-17T06:08:21.649Z,23.03
2024-01-17T06:09:21.621Z,22.90
2024-01-17T06:10:21.675Z,22.30
2024-01-17T06:11:21.730Z,22.89
2024-01-17T06:12:21.787Z,22.93
2024-01-17T06:13:21.827Z,22.89
2024-01-17T06:14:21.885Z,22.81
2024-01-17T06:15:21.955Z,22.62
2024-01-17T06:16:21.985Z,22.60
2024-01-17T06:17:22.055Z,22.54
2024-01-17T06:18:22.286Z,22.54
2024-01-17T06:19:22.209Z,22.43
2024-01-17T06:20:22.222Z,22.33
2024-01-17T06:21:22.264Z,22.31
2024-01-17T06:22:22.335Z,22.33
2024-01-17T06:23:22.375Z,22.33
2024-01-17T06:24:22.503Z,22.31
2024-01-17T06:25:22.494Z,22.15
2024-01-17T06:26:22.548Z,22.16
2024-01-17T06:27:22.733Z,22.16
2024-01-17T06:28:22.638Z,22.09
2024-01-17T06:29:22.684Z,22.16
2024-01-17T06:30:22.851Z,22.15
2024-01-17T06:31:22.856Z,22.18
2024-01-17T06:32:22.928Z,22.09
2024-01-17T06:33:22.981Z,22.22
2024-01-17T06:34:23.170Z,22.30
2024-01-17T06:35:23.128Z,22.44
2024-01-17T06:36:23.128Z,22.51
2024-01-17T06:37:23.093Z,22.54
2024-01-17T06:38:23.122Z,22.66
2024-01-17T06:39:23.095Z,22.69
2024-01-17T06:40:23.081Z,22.88
2024-01-17T06:41:23.084Z,22.81
2024-01-17T06:42:23.090Z,23.29
2024-01-17T06:43:23.094Z,23.11
2024-01-17T06:44:23.081Z,23.05
2024-01-17T06:45:23.121Z,23.04
2024-01-17T06:46:23.058Z,23.30
2024-01-17T06:47:23.383Z,23.43
2024-01-17T06:48:23.174Z,23.36
2024-01-17T06:49:23.172Z,23.46
2024-01-17T06:50:23.030Z,23.63
2024-01-17T06:51:23.027Z,23.69
2024-01-17T06:52:23.032Z,23.84
2024-01-17T06:53:23.013Z,23.93
2024-01-17T06:54:23.018Z,24.15
2024-01-17T06:55:22.984Z,24.33
2024-01-17T06:56:22.975Z,24.31
2024-01-17T06:57:23.069Z,24.48
2024-01-17T06:58:22.973Z,24.51
2024-01-17T06:59:22.993Z,24.64
2024-01-17T07:00:22.973Z,24.70
2024-01-17T07:01:23.004Z,24.78
2024-01-17T07:02:22.956Z,24.81
2024-01-17T07:03:22.978Z,25.12
2024-01-17T07:04:22.947Z,25.11
2024-01-17T07:05:22.973Z,25.14
2024-01-17T07:06:22.979Z,25.30
2024-01-17T07:07:22.918Z,25.57
2024-01-17T07:08:22.926Z,25.64
2024-01-17T07:09:22.937Z,25.57
2024-01-17T07:10:22.864Z,25.71
2024-01-17T07:11:22.840Z,25.78
2024-01-17T07:12:23.017Z,25.94
2024-01-17T07:13:22.834Z,25.86
2024-01-17T07:14:22.809Z,25.90
2024-01-17T07:15:22.913Z,26.06
2024-01-17T07:16:22.770Z,26.10
2024-01-17T07:17:22.775Z,26.09
2024-01-17T07:18:22.951Z,26.16
2024-01-17T07:19:22.742Z,26.30
2024-01-17T07:20:22.760Z,26.25
2024-01-17T07:21:22.775Z,26.43
2024-01-17T07:22:22.715Z,26.88
2024-01-17T07:23:22.711Z,26.76
2024-01-17T07:24:22.764Z,26.70
2024-01-17T07:25:22.650Z,26.69
2024-01-17T07:26:22.668Z,26.65
2024-01-17T07:27:22.659Z,26.73
2024-01-17T07:28:22.649Z,26.75
2024-01-17T07:29:22.616Z,26.67
2024-01-17T07:30:22.723Z,26.86
2024-01-17T07:31:22.571Z,26.78
2024-01-17T07:32:22.552Z,26.84
2024-01-17T07:33:22.762Z,26.78
2024-01-17T07:34:22.682Z,26.85
2024-01-17T07:35:22.490Z,26.93
2024-01-17T07:36:22.555Z,26.88
2024-01-17T07:37:22.448Z,27.01
2024-01-17T07:38:22.445Z,26.94
2024-01-17T07:39:22.477Z,26.92
2024-01-17T07:40:22.420Z,26.99
2024-01-17T07:41:22.368Z,27.31
2024-01-17T07:42:22.451Z,26.93
2024-01-17T07:43:22.319Z,23.80
2024-01-17T07:44:22.343Z,25.16
2024-01-17T07:45:22.388Z,20.87
2024-01-17T07:46:22.384Z,20.00
2024-01-17T07:47:22.456Z,19.75
2024-01-17T07:48:22.463Z,20.09
2024-01-17T07:49:22.519Z,19.38
2024-01-17T07:50:22.301Z,19.09
2024-01-17T07:51:22.366Z,20.02
2024-01-17T07:52:22.318Z,20.76
2024-01-17T07:53:22.335Z,20.96
2024-01-17T07:54:22.412Z,21.06
2024-01-17T07:55:22.398Z,21.68
2024-01-17T07:56:22.300Z,21.85
2024-01-17T07:57:23.228Z,22.01
2024-01-17T07:58:22.311Z,22.27
2024-01-17T07:59:22.375Z,22.30
2024-01-17T08:00:23.213Z,22.51
2024-01-17T08:01:22.374Z,22.87
2024-01-17T08:02:22.261Z,22.72
2024-01-17T08:03:22.458Z,22.83
2024-01-17T08:04:22.341Z,22.83
2024-01-17T08:05:22.326Z,22.82
2024-01-17T08:06:22.464Z,23.05
2024-01-17T08:07:22.484Z,23.18
2024-01-17T08:08:22.423Z,23.00
2024-01-17T08:09:22.615Z,23.17
2024-01-17T08:10:22.558Z,23.13
2024-01-17T08:11:22.630Z,23.28
2024-01-17T08:12:22.675Z,23.40
2024-01-17T08:13:22.656Z,23.38
2024-01-17T08:14:22.792Z,23.48
2024-01-17T08:15:22.726Z,23.58
2024-01-17T08:16:22.741Z,23.54
2024-01-17T08:17:22.841Z,23.46
2024-01-17T08:18:22.921Z,23.95
2024-01-17T08:19:23.244Z,23.72
2024-01-17T08:20:23.387Z,23.77
2024-01-17T08:21:23.055Z,23.65
2024-01-17T08:22:22.960Z,23.60
2024-01-17T08:23:22.994Z,23.63
2024-01-17T08:24:23.046Z,23.66
2024-01-17T08:25:23.050Z,23.64
2024-01-17T08:26:23.032Z,23.75
2024-01-17T08:27:23.029Z,23.69
2024-01-17T08:28:23.003Z,23.67
2024-01-17T08:29:23.008Z,23.69
2024-01-17T08:30:23.194Z,23.76
2024-01-17T08:31:22.981Z,23.86
2024-01-17T08:32:23.115Z,23.93
2024-01-17T08:33:23.066Z,24.15
2024-01-17T08:34:23.015Z,24.08
2024-01-17T08:35:22.934Z,24.13
2024-01-17T08:36:22.948Z,24.20
2024-01-17T08:37:22.905Z,24.32
2024-01-17T08:38:22.876Z,24.97
2024-01-17T08:39:22.870Z,24.68
2024-01-17T08:40:22.845Z,24.54
2024-01-17T08:41:22.841Z,24.38
2024-01-17T08:42:22.931Z,22.83
2024-01-17T08:43:22.808Z,23.46
2024-01-17T08:44:22.798Z,21.18
2024-01-17T08:45:22.828Z,19.82
2024-01-17T08:46:22.780Z,20.00
2024-01-17T08:47:22.802Z,19.28
2024-01-17T08:48:22.896Z,18.77
2024-01-17T08:49:22.889Z,19.23
2024-01-17T08:50:22.885Z,20.34
2024-01-17T08:51:22.955Z,21.21
2024-01-17T08:52:23.024Z,21.52
2024-01-17T08:53:23.052Z,21.84
2024-01-17T08:54:23.125Z,21.70
2024-01-17T08:55:23.203Z,21.78
2024-01-17T08:56:23.265Z,21.68
2024-01-17T08:57:23.333Z,21.78
2024-01-17T08:58:23.303Z,21.76
2024-01-17T08:59:23.307Z,21.79
2024-01-17T09:00:23.326Z,21.76
2024-01-17T09:01:25.931Z,21.78
2024-01-17T09:02:23.719Z,21.93
2024-01-17T09:03:23.333Z,21.97
2024-01-17T09:04:23.247Z,21.81
2024-01-17T09:05:23.323Z,21.84
2024-01-17T09:06:23.413Z,21.80
2024-01-17T09:07:26.002Z,21.63
2024-01-17T09:08:23.340Z,21.22
2024-01-17T09:09:23.267Z,21.24
2024-01-17T09:10:23.255Z,21.55
2024-01-17T09:11:23.232Z,21.52
2024-01-17T09:12:23.180Z,21.72
2024-01-17T09:13:23.161Z,21.71
2024-01-17T09:14:23.190Z,21.90
2024-01-17T09:15:23.141Z,22.12
2024-01-17T09:16:23.102Z,21.95
2024-01-17T09:17:23.143Z,21.73
2024-01-17T09:18:23.166Z,22.26
2024-01-17T09:19:23.244Z,22.61
2024-01-17T09:20:23.101Z,22.67
2024-01-17T09:21:23.140Z,22.81
2024-01-17T09:22:23.043Z,22.81
2024-01-17T09:23:23.039Z,23.19
2024-01-17T09:24:23.065Z,23.16
2024-01-17T09:25:23.003Z,23.08
2024-01-17T09:26:22.996Z,23.17
2024-01-17T09:27:23.081Z,23.19
2024-01-17T09:28:22.967Z,23.49
2024-01-17T09:29:22.965Z,23.63
2024-01-17T09:30:22.946Z,24.08
2024-01-17T09:31:22.889Z,23.85
2024-01-17T09:32:23.854Z,23.86
2024-01-17T09:33:23.076Z,24.13
2024-01-17T09:34:22.944Z,24.12
2024-01-17T09:35:22.823Z,24.01
2024-01-17T09:36:22.887Z,24.01
2024-01-17T09:37:22.792Z,23.98
2024-01-17T09:38:22.824Z,23.91
2024-01-17T09:39:22.837Z,23.67
2024-01-17T09:40:22.776Z,23.68
2024-01-17T09:41:22.770Z,22.67
2024-01-17T09:42:23.135Z,23.52
2024-01-17T09:43:22.793Z,23.27
2024-01-17T09:44:23.289Z,22.86
2024-01-17T09:45:22.730Z,23.25
2024-01-17T09:46:22.705Z,23.10
2024-01-17T09:47:22.758Z,23.52
2024-01-17T09:48:22.769Z,23.48
2024-01-17T09:49:22.765Z,22.98
2024-01-17T09:50:22.644Z,22.49
2024-01-17T09:51:22.637Z,21.63
2024-01-17T09:52:22.684Z,22.73
2024-01-17T09:53:22.584Z,22.57
2024-01-17T09:54:22.665Z,22.28
2024-01-17T09:55:22.600Z,22.20
2024-01-17T09:56:22.600Z,22.38
2024-01-17T09:57:22.629Z,22.20
2024-01-17T09:58:22.754Z,22.23
2024-01-17T09:59:22.593Z,22.14
2024-01-17T10:00:22.618Z,22.13
2024-01-17T10:01:22.538Z,21.93
2024-01-17T10:02:22.531Z,21.98
2024-01-17T10:03:22.715Z,21.93
2024-01-17T10:04:22.651Z,21.62
2024-01-17T10:05:22.735Z,21.70
2024-01-17T10:06:22.742Z,21.74
2024-01-17T10:07:22.752Z,21.56
2024-01-17T10:08:22.883Z,21.45
2024-01-17T10:09:22.848Z,21.46
2024-01-17T10:10:23.654Z,21.51
2024-01-17T10:11:22.956Z,21.31
2024-01-17T10:12:23.099Z,21.17
2024-01-17T10:13:23.085Z,21.13
2024-01-17T10:14:23.104Z,21.33
2024-01-17T10:15:23.206Z,21.19
2024-01-17T10:16:23.125Z,21.20
2024-01-17T10:17:23.134Z,20.96
2024-01-17T10:18:23.203Z,20.52
2024-01-17T10:19:23.177Z,20.78
2024-01-17T10:20:23.103Z,20.64
2024-01-17T10:21:23.113Z,20.56
2024-01-17T10:22:23.118Z,20.88
2024-01-17T10:23:23.079Z,20.94
2024-01-17T10:24:23.133Z,20.80
2024-01-17T10:25:23.077Z,20.82
2024-01-17T10:26:23.089Z,20.79
2024-01-17T10:27:23.123Z,20.88
2024-01-17T10:28:23.090Z,20.97
2024-01-17T10:29:23.053Z,21.06
2024-01-17T10:30:23.136Z,21.00
2024-01-17T10:31:23.073Z,20.73
2024-01-17T10:32:23.065Z,20.80
2024-01-17T10:33:23.193Z,20.78
2024-01-17T10:34:23.243Z,20.94
2024-01-17T10:35:23.065Z,21.34
2024-01-17T10:36:23.176Z,21.31
2024-01-17T10:37:23.053Z,20.76
2024-01-17T10:38:23.032Z,20.59
2024-01-17T10:39:23.122Z,20.66
2024-01-17T10:40:23.067Z,20.85
2024-01-17T10:41:23.068Z,21.47
2024-01-17T10:42:23.182Z,22.08
2024-01-17T10:43:23.157Z,22.16
2024-01-17T10:44:23.235Z,22.51
2024-01-17T10:45:23.309Z,22.42
2024-01-17T10:46:23.300Z,22.49
2024-01-17T10:47:23.399Z,22.49
2024-01-17T10:48:23.534Z,22.45
2024-01-17T10:49:23.605Z,22.47
2024-01-17T10:50:23.549Z,22.37
2024-01-17T10:51:23.680Z,22.41
2024-01-17T10:52:27.618Z,22.37
2024-01-17T10:53:23.666Z,22.37
2024-01-17T10:54:23.702Z,22.42
2024-01-17T10:55:23.667Z,22.40
2024-01-17T10:56:23.741Z,22.45
2024-01-17T10:57:23.681Z,22.50
2024-01-17T10:58:23.595Z,22.50
2024-01-17T10:59:23.608Z,22.56
2024-01-17T11:00:23.630Z,22.51
2024-01-17T11:01:23.570Z,22.43
2024-01-17T11:02:23.575Z,22.54
2024-01-17T11:03:23.640Z,22.40
2024-01-17T11:04:23.644Z,22.35
2024-01-17T11:05:23.549Z,22.47
2024-01-17T11:06:23.635Z,22.51
2024-01-17T11:07:23.523Z,22.50
2024-01-17T11:08:23.585Z,22.47
2024-01-17T11:09:23.554Z,22.47
2024-01-17T11:10:23.475Z,22.52
2024-01-17T11:11:23.493Z,22.46
2024-01-17T11:12:23.590Z,22.41
2024-01-17T11:13:23.529Z,22.40
2024-01-17T11:14:23.467Z,22.52
2024-01-17T11:15:23.595Z,22.50
2024-01-17T11:16:23.452Z,23.23
2024-01-17T11:17:29.639Z,23.81
2024-01-17T11:18:24.672Z,23.24
2024-01-17T11:19:23.630Z,23.30
2024-01-17T11:20:24.951Z,28.74
2024-01-17T11:21:23.482Z,28.51
2024-01-17T11:22:23.437Z,30.06
2024-01-17T11:23:23.415Z,29.55
2024-01-17T11:24:23.453Z,28.73
2024-01-17T11:25:23.438Z,27.05
2024-01-17T11:26:23.387Z,26.37
2024-01-17T11:27:23.418Z,25.92
2024-01-17T11:28:23.367Z,25.06
2024-01-17T11:29:23.345Z,24.92
2024-01-17T11:30:23.387Z,24.54
2024-01-17T11:31:23.366Z,24.49
2024-01-17T11:32:23.406Z,24.47
2024-01-17T11:33:24.395Z,24.43
2024-01-17T11:34:23.576Z,24.40
2024-01-17T11:35:23.400Z,24.39
2024-01-17T11:36:23.424Z,24.36
2024-01-17T11:37:23.425Z,24.19
2024-01-17T11:38:23.442Z,24.44
2024-01-17T11:39:23.446Z,24.51
2024-01-17T11:40:23.371Z,24.75
2024-01-17T11:41:23.375Z,24.75
2024-01-17T11:42:23.391Z,25.32
2024-01-17T11:43:23.344Z,25.42
2024-01-17T11:44:23.390Z,24.73
2024-01-17T11:45:23.481Z,22.11
2024-01-17T11:46:23.354Z,23.23
2024-01-17T11:47:23.419Z,22.77
2024-01-17T11:48:23.437Z,23.57
2024-01-17T11:49:23.382Z,24.12
2024-01-17T11:50:24.466Z,24.13
2024-01-17T11:51:23.520Z,24.19
2024-01-17T11:52:23.396Z,24.54
2024-01-17T11:53:23.492Z,25.21
2024-01-17T11:54:23.474Z,25.01
2024-01-17T11:55:23.391Z,25.43
2024-01-17T11:56:23.461Z,25.23
2024-01-17T11:57:23.457Z,25.53
2024-01-17T11:58:23.390Z,25.47
2024-01-17T11:59:23.364Z,25.67
2024-01-17T12:00:23.534Z,25.49
2024-01-17T12:01:23.359Z,25.72
2024-01-17T12:02:24.261Z,25.67
2024-01-17T12:03:23.356Z,25.69
2024-01-17T12:04:23.344Z,25.76
2024-01-17T12:05:23.307Z,25.99
2024-01-17T12:06:23.751Z,25.84
2024-01-17T12:07:23.414Z,25.93
2024-01-17T12:08:23.309Z,26.11
2024-01-17T12:09:25.755Z,26.42
2024-01-17T12:10:23.241Z,26.32
2024-01-17T12:11:23.211Z,26.45
2024-01-17T12:12:23.514Z,26.41
2024-01-17T12:13:23.264Z,26.51
2024-01-17T12:14:23.146Z,26.71
2024-01-17T12:15:23.227Z,26.98
2024-01-17T12:16:23.354Z,26.80
2024-01-17T12:17:23.091Z,27.21
2024-01-17T12:18:23.202Z,27.27
2024-01-17T12:19:23.222Z,27.22
2024-01-17T12:20:23.036Z,26.99
2024-01-17T12:21:24.705Z,27.16
2024-01-17T12:22:22.996Z,27.11
2024-01-17T12:23:23.003Z,27.17
2024-01-17T12:24:31.458Z,27.23
2024-01-17T12:25:23.951Z,27.26
2024-01-17T12:26:22.903Z,27.38
2024-01-17T12:27:22.988Z,27.72
2024-01-17T12:28:22.886Z,27.66
2024-01-17T12:29:22.878Z,28.15
2024-01-17T12:30:22.896Z,28.04
2024-01-17T12:31:22.806Z,27.90
2024-01-17T12:32:22.863Z,28.12
2024-01-17T12:33:26.148Z,28.75
2024-01-17T12:34:22.817Z,27.76
2024-01-17T12:35:22.778Z,27.35
2024-01-17T12:36:22.867Z,26.95
2024-01-17T12:37:22.714Z,26.77
2024-01-17T12:38:22.699Z,26.58
2024-01-17T12:39:25.673Z,26.37
2024-01-17T12:40:22.674Z,26.29
2024-01-17T12:41:22.652Z,26.27
2024-01-17T12:42:22.719Z,26.37
2024-01-17T12:43:22.600Z,26.24
2024-01-17T12:44:22.585Z,25.97
2024-01-17T12:45:26.589Z,26.10
2024-01-17T12:46:22.562Z,25.72
2024-01-17T12:47:22.587Z,25.58
2024-01-17T12:48:22.603Z,25.45
2024-01-17T12:49:22.680Z,25.39
2024-01-17T12:50:22.495Z,25.25
2024-01-17T12:51:22.604Z,25.18
2024-01-17T12:52:22.455Z,25.19